createdAt,value
2019-02-06T00:01:28.757Z,1.80
2019-02-06T00:04:00.207Z,1.80
2019-02-06T00:06:31.744Z,1.70
2019-02-06T00:09:04.816Z,1.70
2019-02-06T00:11:37.231Z,1.70
2019-02-06T00:14:08.763Z,1.60
2019-02-06T00:16:40.240Z,1.60
2019-02-06T00:19:11.714Z,1.60
2019-02-06T00:21:43.371Z,1.60
2019-02-06T00:24:14.740Z,1.60
2019-02-06T00:26:46.186Z,1.60
2019-02-06T00:29:17.692Z,1.60
2019-02-06T00:31:49.188Z,1.50
2019-02-06T00:34:20.932Z,1.50
2019-02-06T00:36:52.333Z,1.40
2019-02-06T00:39:23.911Z,1.40
2019-02-06T00:41:55.364Z,1.40
2019-02-06T00:44:27.697Z,1.30
2019-02-06T00:46:59.376Z,1.30
2019-02-06T00:49:30.809Z,1.30
2019-02-06T00:52:02.259Z,1.30
2019-02-06T00:54:33.644Z,1.30
2019-02-06T00:57:05.060Z,1.30
2019-02-06T00:59:36.759Z,1.30
2019-02-06T01:02:08.161Z,1.20
2019-02-06T01:04:39.572Z,1.20
2019-02-06T01:07:11.057Z,1.10
2019-02-06T01:09:42.555Z,1.10
2019-02-06T01:12:14.276Z,1.10
2019-02-06T01:14:45.695Z,1.00
2019-02-06T01:17:17.299Z,1.00
2019-02-06T01:19:48.744Z,1.10
2019-02-06T01:22:20.139Z,1.00
2019-02-06T01:24:51.616Z,1.00
2019-02-06T01:27:23.072Z,1.00
2019-02-06T01:29:54.706Z,1.10
2019-02-06T01:32:26.065Z,1.10
2019-02-06T01:34:57.574Z,1.00
2019-02-06T01:37:29.208Z,1.00
2019-02-06T01:40:00.600Z,1.00
2019-02-06T01:42:31.979Z,1.00
2019-02-06T01:45:03.751Z,1.00
2019-02-06T01:47:36.175Z,0.90
2019-02-06T01:50:09.868Z,0.90
2019-02-06T01:52:41.426Z,0.90
2019-02-06T01:55:13.032Z,0.80
2019-02-06T01:57:44.573Z,0.80
2019-02-06T02:00:18.492Z,0.80
2019-02-06T02:02:49.962Z,0.80
2019-02-06T02:05:21.819Z,0.80
2019-02-06T02:07:53.245Z,0.80
2019-02-06T02:10:24.645Z,0.80
2019-02-06T02:12:56.075Z,0.70
2019-02-06T02:15:27.514Z,0.80
2019-02-06T02:17:59.180Z,0.80
2019-02-06T02:20:30.644Z,0.80
2019-02-06T02:23:02.074Z,0.90
2019-02-06T02:25:33.463Z,0.90
2019-02-06T02:28:05.391Z,0.90
2019-02-06T02:30:46.797Z,0.90
2019-02-06T02:33:18.193Z,0.90
2019-02-06T02:35:49.588Z,0.90
2019-02-06T02:38:21.997Z,0.90
2019-02-06T02:40:53.748Z,0.90
2019-02-06T02:43:25.265Z,0.90
2019-02-06T02:45:56.644Z,0.80
2019-02-06T02:48:28.045Z,0.80
2019-02-06T02:51:00.407Z,0.80
2019-02-06T02:53:32.081Z,0.80
2019-02-06T02:56:03.556Z,0.80
2019-02-06T02:58:35.001Z,0.80
2019-02-06T03:01:23.972Z,0.80
2019-02-06T03:04:00.078Z,0.80
2019-02-06T03:06:31.640Z,0.80
2019-02-06T03:09:03.419Z,0.90
2019-02-06T03:11:36.048Z,0.90
2019-02-06T03:14:07.550Z,0.80
2019-02-06T03:16:39.004Z,0.80
2019-02-06T03:19:10.384Z,0.60
2019-02-06T03:21:41.803Z,0.60
2019-02-06T03:24:13.281Z,0.50
2019-02-06T03:26:44.759Z,0.50
2019-02-06T03:29:16.401Z,0.50
2019-02-06T03:31:47.886Z,0.40
2019-02-06T03:34:19.336Z,0.40
2019-02-06T03:36:50.778Z,0.40
2019-02-06T03:39:22.273Z,0.40
2019-02-06T03:41:54.049Z,0.40
2019-02-06T03:44:25.534Z,0.30
2019-02-06T03:46:56.971Z,0.30
2019-02-06T03:49:28.347Z,0.30
2019-02-06T03:51:59.761Z,0.30
2019-02-06T03:54:31.620Z,0.20
2019-02-06T03:57:03.183Z,0.20
2019-02-06T03:59:34.565Z,0.20
2019-02-06T04:02:06.096Z,0.20
2019-02-06T04:04:37.533Z,0.20
2019-02-06T04:07:08.920Z,0.20
2019-02-06T04:09:40.310Z,0.30
2019-02-06T04:12:11.749Z,0.30
2019-02-06T04:14:43.248Z,0.40
2019-02-06T04:17:14.890Z,0.40
2019-02-06T04:19:46.394Z,0.50
2019-02-06T04:22:18.332Z,0.40
2019-02-06T04:24:51.685Z,0.40
2019-02-06T04:27:22.783Z,0.40
2019-02-06T04:29:54.454Z,0.30
2019-02-06T04:32:25.908Z,0.30
2019-02-06T04:34:57.529Z,0.30
2019-02-06T04:37:29.001Z,0.20
2019-02-06T04:40:00.436Z,0.20
2019-02-06T04:42:31.820Z,0.20
2019-02-06T04:45:03.271Z,0.20
2019-02-06T04:47:34.789Z,0.20
2019-02-06T04:50:07.264Z,0.20
2019-02-06T04:52:38.729Z,0.20
2019-02-06T04:55:11.276Z,0.10
2019-02-06T04:57:42.727Z,0.10
2019-02-06T05:00:17.058Z,0.20
2019-02-06T05:02:48.704Z,0.20
2019-02-06T05:05:20.241Z,0.20
2019-02-06T05:07:51.712Z,0.10
2019-02-06T05:10:23.092Z,0.10
2019-02-06T05:12:54.481Z,0.10
2019-02-06T05:15:25.889Z,0.10
2019-02-06T05:17:57.559Z,0.20
2019-02-06T05:20:39.726Z,0.20
2019-02-06T05:23:11.382Z,0.10
2019-02-06T05:25:42.952Z,0.10
2019-02-06T05:28:14.436Z,0.10
2019-02-06T05:30:45.891Z,0.10
2019-02-06T05:33:17.309Z,0.10
2019-02-06T05:35:49.161Z,0.00
2019-02-06T05:38:20.621Z,0.00
2019-02-06T05:40:52.012Z,0.00
2019-02-06T05:43:23.439Z,0.00
2019-02-06T05:45:54.887Z,0.00
2019-02-06T05:48:26.336Z,0.00
2019-02-06T05:50:57.828Z,0.00
2019-02-06T05:53:29.488Z,0.00
2019-02-06T05:56:00.860Z,0.00
2019-02-06T05:58:32.277Z,0.00
2019-02-06T06:01:03.946Z,0.00
2019-02-06T06:03:35.718Z,0.00
2019-02-06T06:06:07.089Z,0.00
2019-02-06T06:08:38.576Z,0.10
2019-02-06T06:11:10.120Z,0.10
2019-02-06T06:13:41.576Z,0.10
2019-02-06T06:16:13.028Z,0.10
2019-02-06T06:18:44.588Z,0.10
2019-02-06T06:21:16.010Z,0.00
2019-02-06T06:23:47.493Z,0.00
2019-02-06T06:26:18.886Z,0.00
2019-02-06T06:28:50.433Z,0.00
2019-02-06T06:31:21.825Z,0.00
2019-02-06T06:33:53.474Z,0.00
2019-02-06T06:36:24.950Z,0.00
2019-02-06T06:38:56.458Z,0.10
2019-02-06T06:41:27.936Z,0.20
2019-02-06T06:43:59.501Z,0.30
2019-02-06T06:46:30.897Z,0.40
2019-02-06T06:49:02.322Z,0.60
2019-02-06T06:51:33.820Z,0.70
2019-02-06T06:54:05.500Z,0.90
2019-02-06T06:56:37.138Z,1.10
2019-02-06T06:59:08.619Z,1.40
2019-02-06T07:01:40.114Z,1.70
2019-02-06T07:04:11.570Z,1.90
2019-02-06T07:06:42.998Z,2.20
2019-02-06T07:09:15.767Z,2.50
2019-02-06T07:11:47.140Z,2.70
2019-02-06T07:14:18.533Z,2.90
2019-02-06T07:16:49.960Z,3.10
2019-02-06T07:19:21.408Z,3.20
2019-02-06T07:21:53.184Z,3.20
2019-02-06T07:24:24.819Z,3.30
2019-02-06T07:26:56.276Z,3.30
2019-02-06T07:29:27.669Z,3.40
2019-02-06T07:31:59.144Z,3.40
2019-02-06T07:34:30.969Z,3.40
2019-02-06T07:37:02.348Z,3.50
2019-02-06T07:39:33.772Z,3.60
2019-02-06T07:42:05.255Z,3.80
2019-02-06T07:44:36.656Z,4.00
2019-02-06T07:47:08.209Z,4.40
2019-02-06T07:49:39.644Z,4.70
2019-02-06T07:52:11.011Z,4.70
2019-02-06T07:54:42.420Z,4.80
2019-02-06T07:57:13.842Z,4.90
2019-02-06T07:59:45.396Z,5.00
2019-02-06T08:02:17.854Z,5.10
2019-02-06T08:04:49.401Z,5.10
2019-02-06T08:07:20.883Z,5.10
2019-02-06T08:09:52.430Z,5.10
2019-02-06T08:12:23.919Z,5.00
2019-02-06T08:14:55.600Z,4.90
2019-02-06T08:17:27.069Z,4.80
2019-02-06T08:19:58.545Z,4.60
2019-02-06T08:22:29.998Z,4.50
2019-02-06T08:25:01.565Z,4.40
2019-02-06T08:27:33.360Z,4.20
2019-02-06T08:30:06.059Z,4.30
2019-02-06T08:32:38.095Z,4.40
2019-02-06T08:35:09.945Z,4.70
2019-02-06T08:37:41.698Z,5.10
2019-02-06T08:40:13.676Z,5.40
2019-02-06T08:42:45.241Z,5.70
2019-02-06T08:45:17.069Z,5.90
2019-02-06T08:47:48.537Z,6.10
2019-02-06T08:50:20.378Z,6.60
2019-02-06T08:52:52.367Z,7.00
2019-02-06T08:55:26.006Z,7.50
2019-02-06T08:57:57.403Z,7.70
2019-02-06T09:00:31.563Z,7.50
2019-02-06T09:03:03.444Z,7.20
2019-02-06T09:05:35.071Z,6.90
2019-02-06T09:08:07.048Z,6.80
2019-02-06T09:10:38.574Z,6.60
2019-02-06T09:13:10.123Z,6.40
2019-02-06T09:15:41.621Z,6.20
2019-02-06T09:18:13.118Z,6.00
2019-02-06T09:20:44.528Z,5.80
2019-02-06T09:23:15.920Z,5.60
2019-02-06T09:25:47.308Z,5.40
2019-02-06T09:28:18.694Z,5.30
2019-02-06T09:30:50.371Z,5.20
2019-02-06T09:33:21.832Z,5.10
2019-02-06T09:35:53.280Z,5.00
2019-02-06T09:38:24.764Z,4.90
2019-02-06T09:40:56.173Z,4.80
2019-02-06T09:43:27.663Z,4.90
2019-02-06T09:45:59.176Z,4.90
2019-02-06T09:48:30.582Z,4.90
2019-02-06T09:51:02.072Z,4.90
2019-02-06T09:53:33.476Z,5.00
2019-02-06T09:56:05.274Z,5.00
2019-02-06T09:58:36.877Z,5.00
2019-02-06T10:01:08.249Z,5.10
2019-02-06T10:03:39.628Z,5.10
2019-02-06T10:06:11.067Z,5.20
2019-02-06T10:08:42.577Z,5.30
2019-02-06T10:11:14.079Z,5.30
2019-02-06T10:13:45.545Z,5.40
2019-02-06T10:16:20.037Z,5.50
2019-02-06T10:18:50.128Z,5.60
2019-02-06T10:21:21.550Z,5.70
2019-02-06T10:23:53.036Z,5.90
2019-02-06T10:26:24.527Z,6.00
2019-02-06T10:28:55.940Z,6.10
2019-02-06T10:31:27.428Z,6.20
2019-02-06T10:33:58.862Z,6.30
2019-02-06T10:36:30.532Z,6.40
2019-02-06T10:39:01.995Z,6.40
2019-02-06T10:41:33.663Z,6.40
2019-02-06T10:44:05.245Z,6.40
2019-02-06T10:46:36.779Z,6.50
2019-02-06T10:49:08.665Z,6.60
2019-02-06T10:51:40.152Z,6.70
2019-02-06T10:54:14.514Z,6.80
2019-02-06T10:56:44.720Z,6.90
2019-02-06T10:59:16.128Z,7.00
2019-02-06T11:01:47.805Z,7.00
2019-02-06T11:04:19.176Z,6.90
2019-02-06T11:06:50.575Z,6.90
2019-02-06T11:09:21.946Z,6.80
2019-02-06T11:11:53.452Z,6.70
2019-02-06T11:14:25.329Z,6.60
2019-02-06T11:16:56.775Z,6.60
2019-02-06T11:19:28.148Z,6.60
2019-02-06T11:21:59.568Z,6.60
2019-02-06T11:24:30.992Z,6.60
2019-02-06T11:27:02.717Z,6.50
2019-02-06T11:29:34.089Z,6.50
2019-02-06T11:32:05.712Z,6.40
2019-02-06T11:34:37.100Z,6.40
2019-02-06T11:37:08.692Z,6.40
2019-02-06T11:39:40.136Z,6.30
2019-02-06T11:42:11.562Z,6.30
2019-02-06T11:44:42.932Z,6.10
2019-02-06T11:47:14.338Z,6.10
2019-02-06T11:49:46.618Z,6.10
2019-02-06T11:52:18.124Z,6.10
2019-02-06T11:54:49.540Z,6.10
2019-02-06T11:57:24.020Z,6.20
2019-02-06T11:59:54.147Z,6.20
2019-02-06T12:02:36.732Z,6.20
2019-02-06T12:04:59.162Z,6.20
2019-02-06T12:07:30.620Z,6.20
2019-02-06T12:10:09.300Z,6.30
2019-02-06T12:12:35.171Z,6.30
2019-02-06T12:15:10.083Z,6.40
2019-02-06T12:17:41.576Z,6.40
2019-02-06T12:20:16.221Z,6.40
2019-02-06T12:22:47.658Z,6.40
2019-02-06T12:25:19.548Z,6.40
2019-02-06T12:27:50.999Z,6.40
2019-02-06T12:30:26.236Z,6.40
2019-02-06T12:32:57.867Z,6.30
2019-02-06T12:35:29.384Z,6.40
2019-02-06T12:38:01.015Z,6.50
2019-02-06T12:40:32.679Z,6.60
2019-02-06T12:43:04.461Z,6.70
2019-02-06T12:45:36.385Z,6.70
2019-02-06T12:48:08.411Z,6.70
2019-02-06T12:50:40.047Z,6.60
2019-02-06T12:53:11.680Z,6.50
2019-02-06T12:55:43.340Z,6.40
2019-02-06T12:58:14.891Z,6.20
2019-02-06T13:00:46.414Z,6.10
2019-02-06T13:03:17.896Z,6.10
2019-02-06T13:05:49.356Z,6.10
2019-02-06T13:08:20.860Z,6.20
2019-02-06T13:10:52.347Z,6.50
2019-02-06T13:13:23.839Z,6.60
2019-02-06T13:15:55.300Z,6.80
2019-02-06T13:18:26.685Z,7.20
2019-02-06T13:20:58.113Z,7.40
2019-02-06T13:23:29.592Z,7.60
2019-02-06T13:26:01.100Z,7.80
2019-02-06T13:28:32.560Z,7.90
2019-02-06T13:31:04.144Z,9.20
2019-02-06T13:33:35.620Z,9.40
2019-02-06T13:36:09.976Z,9.30
2019-02-06T13:38:41.399Z,9.20
2019-02-06T13:41:12.806Z,9.10
2019-02-06T13:43:44.324Z,9.10
2019-02-06T13:46:16.726Z,9.00
2019-02-06T13:48:48.220Z,8.90
2019-02-06T13:51:19.865Z,8.80
2019-02-06T13:53:51.460Z,8.70
2019-02-06T13:56:22.936Z,8.60
2019-02-06T13:58:54.399Z,8.40
2019-02-06T14:01:26.261Z,8.10
2019-02-06T14:03:57.796Z,7.90
2019-02-06T14:06:29.236Z,7.60
2019-02-06T14:09:00.936Z,7.30
2019-02-06T14:11:32.582Z,7.10
2019-02-06T14:14:05.488Z,6.90
2019-02-06T14:16:36.888Z,6.70
2019-02-06T14:19:08.517Z,6.50
2019-02-06T14:21:40.042Z,6.40
2019-02-06T14:24:58.548Z,6.30
2019-02-06T14:27:53.761Z,6.30
2019-02-06T14:30:53.036Z,6.30
2019-02-06T14:34:12.031Z,6.20
2019-02-06T14:37:36.379Z,6.10
2019-02-06T14:40:53.045Z,6.00
2019-02-06T14:43:50.046Z,5.90
2019-02-06T14:46:50.699Z,5.60
2019-02-06T14:49:51.451Z,5.40
2019-02-06T14:52:53.829Z,5.20
2019-02-06T14:56:13.957Z,5.00
2019-02-06T14:59:47.128Z,4.90
2019-02-06T15:03:08.693Z,4.80
2019-02-06T15:06:13.790Z,4.70
2019-02-06T15:09:26.469Z,4.50
2019-02-06T15:13:02.845Z,4.40
2019-02-06T15:16:17.765Z,4.30
2019-02-06T15:19:36.137Z,4.10
2019-02-06T15:23:02.323Z,4.00
2019-02-06T15:26:16.673Z,4.00
2019-02-06T15:29:22.417Z,3.80
2019-02-06T15:32:30.781Z,3.70
2019-02-06T15:35:41.413Z,3.60
2019-02-06T15:39:00.333Z,3.40
2019-02-06T15:42:17.768Z,3.30
2019-02-06T15:45:18.232Z,3.20
2019-02-06T15:47:55.742Z,3.10
2019-02-06T15:51:31.917Z,3.10
2019-02-06T15:54:43.392Z,3.00
2019-02-06T15:57:27.775Z,2.90
2019-02-06T16:00:29.169Z,2.80
2019-02-06T16:03:20.607Z,2.70
2019-02-06T16:06:23.777Z,2.70
2019-02-06T16:09:33.672Z,2.60
2019-02-06T16:12:28.442Z,2.60
2019-02-06T16:15:14.744Z,2.60
2019-02-06T16:18:05.116Z,2.60
2019-02-06T16:21:16.312Z,2.60
2019-02-06T16:24:12.252Z,2.60
2019-02-06T16:27:30.477Z,2.60
2019-02-06T16:30:20.648Z,2.50
2019-02-06T16:33:22.616Z,2.50
2019-02-06T16:36:23.360Z,2.50
2019-02-06T16:39:31.403Z,2.50
2019-02-06T16:42:42.001Z,2.50
2019-02-06T16:46:08.980Z,2.50
2019-02-06T16:49:07.505Z,2.40
2019-02-06T16:51:46.187Z,2.40
2019-02-06T16:54:32.311Z,2.30
2019-02-06T16:57:47.777Z,2.30
2019-02-06T17:01:04.835Z,2.30
2019-02-06T17:04:16.123Z,2.30
2019-02-06T17:07:18.772Z,2.30
2019-02-06T17:10:43.204Z,2.30
2019-02-06T17:13:53.043Z,2.30
2019-02-06T17:17:11.529Z,2.20
2019-02-06T17:20:08.259Z,2.20
2019-02-06T17:23:13.471Z,2.20
2019-02-06T17:26:22.716Z,2.10
2019-02-06T17:29:35.302Z,2.10
2019-02-06T17:32:47.672Z,2.10
2019-02-06T17:35:53.706Z,2.10
2019-02-06T17:39:10.765Z,2.10
2019-02-06T17:42:19.392Z,2.00
2019-02-06T17:45:32.053Z,2.00
2019-02-06T17:48:32.650Z,2.00
2019-02-06T17:51:20.390Z,2.00
2019-02-06T17:54:29.489Z,1.90
2019-02-06T17:57:01.012Z,2.00
2019-02-06T17:59:32.528Z,2.00
2019-02-06T18:02:04.136Z,2.00
2019-02-06T18:04:41.858Z,1.90
2019-02-06T18:07:13.667Z,1.90
2019-02-06T18:09:45.218Z,1.90
2019-02-06T18:12:26.170Z,1.80
2019-02-06T18:14:50.041Z,1.80
2019-02-06T18:17:21.844Z,1.80
2019-02-06T18:19:54.187Z,1.80
2019-02-06T18:22:25.720Z,1.80
2019-02-06T18:24:57.264Z,1.70
2019-02-06T18:27:28.828Z,1.70
2019-02-06T18:30:00.551Z,1.70
2019-02-06T18:32:33.131Z,1.70
2019-02-06T18:35:05.807Z,1.70
2019-02-06T18:37:43.207Z,1.60
2019-02-06T18:40:13.228Z,1.60
2019-02-06T18:42:44.769Z,1.60
2019-02-06T18:45:16.963Z,1.60
2019-02-06T18:47:48.490Z,1.50
2019-02-06T18:50:21.655Z,1.50
2019-02-06T18:52:53.462Z,1.50
2019-02-06T18:55:25.095Z,1.50
2019-02-06T18:57:56.950Z,1.50
2019-02-06T19:00:32.294Z,1.40
2019-02-06T19:03:06.541Z,1.40
2019-02-06T19:05:38.459Z,1.40
2019-02-06T19:08:10.043Z,1.40
2019-02-06T19:10:41.596Z,1.50
2019-02-06T19:13:13.626Z,1.50
2019-02-06T19:15:55.973Z,1.50
2019-02-06T19:18:18.324Z,1.50
2019-02-06T19:20:50.772Z,1.40
2019-02-06T19:23:22.298Z,1.40
2019-02-06T19:25:53.768Z,1.30
2019-02-06T19:28:25.858Z,1.30
2019-02-06T19:30:57.386Z,1.30
2019-02-06T19:33:28.946Z,1.20
2019-02-06T19:36:00.448Z,1.20
2019-02-06T19:38:31.935Z,1.30
2019-02-06T19:41:03.751Z,1.30
2019-02-06T19:43:35.384Z,1.30
2019-02-06T19:46:08.052Z,1.20
2019-02-06T19:48:39.794Z,1.20
2019-02-06T19:51:11.392Z,1.20
2019-02-06T19:53:42.950Z,1.20
2019-02-06T19:56:14.497Z,1.20
2019-02-06T19:58:46.115Z,1.10
2019-02-06T20:01:18.972Z,1.10
2019-02-06T20:03:52.613Z,1.10
2019-02-06T20:06:30.885Z,1.10
2019-02-06T20:09:12.803Z,1.10
2019-02-06T20:11:44.427Z,1.10
2019-02-06T20:14:16.385Z,1.00
2019-02-06T20:16:47.901Z,1.00
2019-02-06T20:19:20.775Z,1.00
2019-02-06T20:21:52.307Z,0.90
2019-02-06T20:24:23.775Z,0.90
2019-02-06T20:26:55.252Z,0.80
2019-02-06T20:29:26.734Z,0.80
2019-02-06T20:31:58.245Z,0.80
2019-02-06T20:34:30.198Z,0.80
2019-02-06T20:37:01.789Z,0.70
2019-02-06T20:39:33.328Z,0.70
2019-02-06T20:42:04.916Z,0.70
2019-02-06T20:44:36.505Z,0.70
2019-02-06T20:47:08.085Z,0.60
2019-02-06T20:49:39.569Z,0.60
2019-02-06T20:52:12.055Z,0.60
2019-02-06T20:54:43.601Z,0.50
2019-02-06T20:57:15.761Z,0.50
2019-02-06T20:59:47.374Z,0.50
2019-02-06T21:02:19.112Z,0.50
2019-02-06T21:04:50.630Z,0.50
2019-02-06T21:07:22.111Z,0.40
2019-02-06T21:09:53.614Z,0.40
2019-02-06T21:12:25.100Z,0.40
2019-02-06T21:14:56.999Z,0.40
2019-02-06T21:17:28.574Z,0.40
2019-02-06T21:20:00.313Z,0.40
2019-02-06T21:22:31.775Z,0.40
2019-02-06T21:25:04.841Z,0.30
2019-02-06T21:27:36.666Z,0.30
2019-02-06T21:30:18.495Z,0.30
2019-02-06T21:32:50.120Z,0.30
2019-02-06T21:35:21.630Z,0.30
2019-02-06T21:37:53.139Z,0.30
2019-02-06T21:40:26.421Z,0.30
2019-02-06T21:42:57.841Z,0.20
2019-02-06T21:45:29.392Z,0.20
2019-02-06T21:48:00.888Z,0.20
2019-02-06T21:50:32.382Z,0.10
2019-02-06T21:53:04.000Z,0.10
2019-02-06T21:55:35.537Z,0.10
2019-02-06T21:58:07.043Z,0.10
2019-02-06T22:00:42.233Z,0.10
2019-02-06T22:03:13.721Z,0.00
2019-02-06T22:05:45.204Z,0.00
2019-02-06T22:08:16.759Z,0.00
2019-02-06T22:10:48.238Z,0.00
2019-02-06T22:13:19.764Z,-0.10
2019-02-06T22:15:51.141Z,-0.10
2019-02-06T22:18:22.814Z,-0.20
2019-02-06T22:20:54.259Z,-0.20
2019-02-06T22:23:25.769Z,-0.20
2019-02-06T22:25:57.232Z,-0.20
2019-02-06T22:28:28.701Z,-0.20
2019-02-06T22:31:00.216Z,-0.20
2019-02-06T22:33:31.676Z,-0.30
2019-02-06T22:36:03.320Z,-0.30
2019-02-06T22:38:34.800Z,-0.30
2019-02-06T22:41:06.502Z,-0.30
2019-02-06T22:43:38.019Z,-0.40
2019-02-06T22:46:09.415Z,-0.30
2019-02-06T22:48:40.880Z,-0.30
2019-02-06T22:51:12.333Z,-0.40
2019-02-06T22:53:43.819Z,-0.40
2019-02-06T22:56:15.289Z,-0.40
2019-02-06T22:58:46.757Z,-0.50
2019-02-06T23:01:33.780Z,-0.50
2019-02-06T23:04:05.489Z,-0.50
2019-02-06T23:06:37.000Z,-0.50
2019-02-06T23:09:09.432Z,-0.50
2019-02-06T23:11:41.080Z,-0.50
2019-02-06T23:14:17.748Z,-0.50
2019-02-06T23:16:45.969Z,-0.50
2019-02-06T23:19:17.503Z,-0.60
2019-02-06T23:21:48.900Z,-0.60
2019-02-06T23:24:20.303Z,-0.60
2019-02-06T23:26:51.699Z,-0.60
2019-02-06T23:29:23.479Z,-0.60
2019-02-06T23:31:54.952Z,-0.60
2019-02-06T23:34:26.504Z,-0.70
2019-02-06T23:36:57.932Z,-0.70
2019-02-06T23:39:29.341Z,-0.70
2019-02-06T23:42:01.116Z,-0.70
2019-02-06T23:44:32.591Z,-0.70
2019-02-06T23:47:04.048Z,-0.70
2019-02-06T23:49:35.479Z,-0.70
2019-02-06T23:52:06.926Z,-0.70
2019-02-06T23:54:38.607Z,-0.70
2019-02-06T23:57:09.988Z,-0.70
2019-02-06T23:59:41.387Z,-0.70
